sensor_id;sensor_type;location;lat;lon;timestamp;P1;durP1;ratioP1;P2;durP2;ratioP2
11537;SDS011;50159;49.426;11.182;2023-04-03T00:01:05;2.83;;;2.67;;
11537;SDS011;50159;49.426;11.182;2023-04-03T00:03:33;2.90;;;2.80;;
11537;SDS011;50159;49.426;11.182;2023-04-03T00:06:01;2.50;;;2.40;;
11537;SDS011;50159;49.426;11.182;2023-04-03T00:08:28;2.70;;;2.60;;
11537;SDS011;50159;49.426;11.182;2023-04-03T00:10:58;2.40;;;2.40;;
11537;SDS011;50159;49.426;11.182;2023-04-03T00:13:25;2.73;;;2.57;;
11537;SDS011;50159;49.426;11.182;2023-04-03T00:15:52;2.60;;;2.50;;
11537;SDS011;50159;49.426;11.182;2023-04-03T00:18:21;2.47;;;2.47;;
11537;SDS011;50159;49.426;11.182;2023-04-03T00:20:48;2.53;;;2.43;;
11537;SDS011;50159;49.426;11.182;2023-04-03T00:23:15;2.47;;;2.37;;
11537;SDS011;50159;49.426;11.182;2023-04-03T00:25:43;2.30;;;2.30;;
11537;SDS011;50159;49.426;11.182;2023-04-03T00:28:09;2.60;;;2.50;;
11537;SDS011;50159;49.426;11.182;2023-04-03T00:30:36;2.30;;;2.30;;
11537;SDS011;50159;49.426;11.182;2023-04-03T00:33:04;2.33;;;2.33;;
11537;SDS011;50159;49.426;11.182;2023-04-03T00:35:31;2.30;;;2.23;;
11537;SDS011;50159;49.426;11.182;2023-04-03T00:37:58;2.47;;;2.37;;
11537;SDS011;50159;49.426;11.182;2023-04-03T00:40:25;2.30;;;2.30;;
11537;SDS011;50159;49.426;11.182;2023-04-03T00:42:57;2.80;;;2.70;;
11537;SDS011;50159;49.426;11.182;2023-04-03T00:45:30;2.73;;;2.63;;
11537;SDS011;50159;49.426;11.182;2023-04-03T00:48:05;2.90;;;2.80;;
11537;SDS011;50159;49.426;11.182;2023-04-03T00:50:37;3.20;;;3.07;;
11537;SDS011;50159;49.426;11.182;2023-04-03T00:53:09;2.87;;;2.67;;
11537;SDS011;50159;49.426;11.182;2023-04-03T00:55:42;2.80;;;2.60;;
11537;SDS011;50159;49.426;11.182;2023-04-03T00:58:10;3.60;;;3.37;;
11537;SDS011;50159;49.426;11.182;2023-04-03T01:00:40;2.50;;;2.40;;
11537;SDS011;50159;49.426;11.182;2023-04-03T01:03:12;3.00;;;2.80;;
11537;SDS011;50159;49.426;11.182;2023-04-03T01:05:39;2.47;;;2.43;;
11537;SDS011;50159;49.426;11.182;2023-04-03T01:08:07;2.93;;;2.83;;
11537;SDS011;50159;49.426;11.182;2023-04-03T01:10:34;3.00;;;2.90;;
11537;SDS011;50159;49.426;11.182;2023-04-03T01:13:01;3.03;;;2.93;;
11537;SDS011;50159;49.426;11.182;2023-04-03T01:15:53;2.40;;;2.40;;
11537;SDS011;50159;49.426;11.182;2023-04-03T01:18:21;2.60;;;2.50;;
11537;SDS011;50159;49.426;11.182;2023-04-03T01:26:36;2.47;;;2.37;;
11537;SDS011;50159;49.426;11.182;2023-04-03T01:29:03;3.00;;;2.90;;
11537;SDS011;50159;49.426;11.182;2023-04-03T01:31:32;2.60;;;2.50;;
11537;SDS011;50159;49.426;11.182;2023-04-03T01:34:16;2.50;;;2.40;;
11537;SDS011;50159;49.426;11.182;2023-04-03T01:36:44;2.90;;;2.70;;
11537;SDS011;50159;49.426;11.182;2023-04-03T01:39:11;3.83;;;2.90;;
11537;SDS011;50159;49.426;11.182;2023-04-03T01:41:38;2.90;;;2.80;;
11537;SDS011;50159;49.426;11.182;2023-04-03T01:44:05;2.70;;;2.60;;
11537;SDS011;50159;49.426;11.182;2023-04-03T01:46:32;2.93;;;2.70;;
11537;SDS011;50159;49.426;11.182;2023-04-03T01:48:59;2.77;;;2.57;;
11537;SDS011;50159;49.426;11.182;2023-04-03T01:51:26;2.83;;;2.73;;
11537;SDS011;50159;49.426;11.182;2023-04-03T01:53:53;2.80;;;2.70;;
11537;SDS011;50159;49.426;11.182;2023-04-03T01:56:19;3.03;;;2.83;;
11537;SDS011;50159;49.426;11.182;2023-04-03T01:58:47;3.03;;;2.83;;
11537;SDS011;50159;49.426;11.182;2023-04-03T02:01:14;2.67;;;2.57;;
11537;SDS011;50159;49.426;11.182;2023-04-03T02:03:41;2.70;;;2.70;;
11537;SDS011;50159;49.426;11.182;2023-04-03T02:06:08;2.97;;;2.87;;
11537;SDS011;50159;49.426;11.182;2023-04-03T02:08:37;3.30;;;3.20;;
11537;SDS011;50159;49.426;11.182;2023-04-03T02:11:04;2.30;;;2.30;;
11537;SDS011;50159;49.426;11.182;2023-04-03T02:13:31;2.80;;;2.70;;
11537;SDS011;50159;49.426;11.182;2023-04-03T02:15:58;3.10;;;2.90;;
11537;SDS011;50159;49.426;11.182;2023-04-03T02:18:25;3.00;;;2.80;;
11537;SDS011;50159;49.426;11.182;2023-04-03T02:20:52;3.10;;;3.00;;
11537;SDS011;50159;49.426;11.182;2023-04-03T02:23:18;3.07;;;2.97;;
11537;SDS011;50159;49.426;11.182;2023-04-03T02:25:45;3.40;;;3.10;;
11537;SDS011;50159;49.426;11.182;2023-04-03T02:28:12;2.90;;;2.80;;
11537;SDS011;50159;49.426;11.182;2023-04-03T02:30:38;3.03;;;2.83;;
11537;SDS011;50159;49.426;11.182;2023-04-03T02:33:05;3.00;;;2.90;;
11537;SDS011;50159;49.426;11.182;2023-04-03T02:35:32;2.90;;;2.80;;
11537;SDS011;50159;49.426;11.182;2023-04-03T02:37:59;2.77;;;2.60;;
11537;SDS011;50159;49.426;11.182;2023-04-03T02:40:26;2.70;;;2.60;;
11537;SDS011;50159;49.426;11.182;2023-04-03T02:42:53;2.90;;;2.80;;
11537;SDS011;50159;49.426;11.182;2023-04-03T02:45:19;2.73;;;2.63;;
11537;SDS011;50159;49.426;11.182;2023-04-03T02:47:46;2.70;;;2.60;;
11537;SDS011;50159;49.426;11.182;2023-04-03T02:50:13;2.80;;;2.70;;
11537;SDS011;50159;49.426;11.182;2023-04-03T02:52:40;3.10;;;2.90;;
11537;SDS011;50159;49.426;11.182;2023-04-03T02:55:07;2.43;;;2.40;;
11537;SDS011;50159;49.426;11.182;2023-04-03T02:57:34;2.87;;;2.77;;
11537;SDS011;50159;49.426;11.182;2023-04-03T03:00:01;2.87;;;2.67;;
11537;SDS011;50159;49.426;11.182;2023-04-03T03:02:29;2.53;;;2.50;;
11537;SDS011;50159;49.426;11.182;2023-04-03T03:04:56;3.07;;;2.70;;
11537;SDS011;50159;49.426;11.182;2023-04-03T03:07:23;2.73;;;2.60;;
11537;SDS011;50159;49.426;11.182;2023-04-03T03:09:50;2.73;;;2.63;;
11537;SDS011;50159;49.426;11.182;2023-04-03T03:12:16;2.90;;;2.70;;
11537;SDS011;50159;49.426;11.182;2023-04-03T03:14:47;2.57;;;2.57;;
11537;SDS011;50159;49.426;11.182;2023-04-03T03:17:14;2.67;;;2.57;;
11537;SDS011;50159;49.426;11.182;2023-04-03T03:19:42;2.17;;;2.17;;
11537;SDS011;50159;49.426;11.182;2023-04-03T03:22:09;2.83;;;2.73;;
11537;SDS011;50159;49.426;11.182;2023-04-03T03:24:36;3.00;;;2.90;;
11537;SDS011;50159;49.426;11.182;2023-04-03T03:27:03;2.57;;;2.47;;
11537;SDS011;50159;49.426;11.182;2023-04-03T03:29:30;2.70;;;2.60;;
11537;SDS011;50159;49.426;11.182;2023-04-03T03:31:57;2.60;;;2.50;;
11537;SDS011;50159;49.426;11.182;2023-04-03T03:34:23;2.57;;;2.47;;
11537;SDS011;50159;49.426;11.182;2023-04-03T03:36:50;2.77;;;2.60;;
11537;SDS011;50159;49.426;11.182;2023-04-03T03:39:17;4.07;;;2.67;;
11537;SDS011;50159;49.426;11.182;2023-04-03T03:41:44;2.60;;;2.50;;
11537;SDS011;50159;49.426;11.182;2023-04-03T03:44:10;2.93;;;2.83;;
11537;SDS011;50159;49.426;11.182;2023-04-03T03:46:39;2.93;;;2.60;;
11537;SDS011;50159;49.426;11.182;2023-04-03T03:49:06;2.77;;;2.67;;
11537;SDS011;50159;49.426;11.182;2023-04-03T03:51:33;2.57;;;2.53;;
11537;SDS011;50159;49.426;11.182;2023-04-03T03:53:59;2.93;;;2.80;;
11537;SDS011;50159;49.426;11.182;2023-04-03T03:56:26;2.90;;;2.80;;
11537;SDS011;50159;49.426;11.182;2023-04-03T03:58:53;2.97;;;2.77;;
11537;SDS011;50159;49.426;11.182;2023-04-03T04:01:22;2.90;;;2.80;;
11537;SDS011;50159;49.426;11.182;2023-04-03T04:03:50;2.93;;;2.83;;
11537;SDS011;50159;49.426;11.182;2023-04-03T04:06:17;3.40;;;3.10;;
11537;SDS011;50159;49.426;11.182;2023-04-03T04:08:44;2.50;;;2.50;;
11537;SDS011;50159;49.426;11.182;2023-04-03T04:11:11;2.80;;;2.60;;
11537;SDS011;50159;49.426;11.182;2023-04-03T04:13:38;2.60;;;2.50;;
11537;SDS011;50159;49.426;11.182;2023-04-03T04:16:05;4.80;;;2.80;;
11537;SDS011;50159;49.426;11.182;2023-04-03T04:18:32;3.27;;;3.13;;
11537;SDS011;50159;49.426;11.182;2023-04-03T04:20:59;3.00;;;2.90;;
11537;SDS011;50159;49.426;11.182;2023-04-03T04:23:26;3.13;;;2.93;;
11537;SDS011;50159;49.426;11.182;2023-04-03T04:25:53;3.10;;;3.00;;
11537;SDS011;50159;49.426;11.182;2023-04-03T04:28:20;4.73;;;3.03;;
11537;SDS011;50159;49.426;11.182;2023-04-03T04:30:46;3.03;;;2.87;;
11537;SDS011;50159;49.426;11.182;2023-04-03T04:33:13;2.60;;;2.50;;
11537;SDS011;50159;49.426;11.182;2023-04-03T04:35:41;2.97;;;2.87;;
11537;SDS011;50159;49.426;11.182;2023-04-03T04:38:09;3.40;;;3.20;;
11537;SDS011;50159;49.426;11.182;2023-04-03T04:40:36;3.07;;;2.87;;
11537;SDS011;50159;49.426;11.182;2023-04-03T04:43:03;3.10;;;3.00;;
11537;SDS011;50159;49.426;11.182;2023-04-03T04:45:30;3.00;;;2.70;;
11537;SDS011;50159;49.426;11.182;2023-04-03T04:47:57;2.97;;;2.87;;
11537;SDS011;50159;49.426;11.182;2023-04-03T04:50:24;3.10;;;3.00;;
11537;SDS011;50159;49.426;11.182;2023-04-03T04:52:51;2.97;;;2.77;;
11537;SDS011;50159;49.426;11.182;2023-04-03T04:55:18;3.23;;;3.03;;
11537;SDS011;50159;49.426;11.182;2023-04-03T04:57:45;3.10;;;3.00;;
11537;SDS011;50159;49.426;11.182;2023-04-03T05:00:12;2.70;;;2.70;;
11537;SDS011;50159;49.426;11.182;2023-04-03T05:02:40;3.80;;;3.60;;
11537;SDS011;50159;49.426;11.182;2023-04-03T05:05:06;3.40;;;3.10;;
11537;SDS011;50159;49.426;11.182;2023-04-03T05:07:34;3.50;;;3.30;;
11537;SDS011;50159;49.426;11.182;2023-04-03T05:10:02;3.50;;;3.30;;
11537;SDS011;50159;49.426;11.182;2023-04-03T05:12:30;3.20;;;3.10;;
11537;SDS011;50159;49.426;11.182;2023-04-03T05:14:56;3.33;;;3.07;;
11537;SDS011;50159;49.426;11.182;2023-04-03T05:17:23;3.27;;;3.17;;
11537;SDS011;50159;49.426;11.182;2023-04-03T05:19:50;3.57;;;3.23;;
11537;SDS011;50159;49.426;11.182;2023-04-03T05:22:17;3.33;;;3.23;;
11537;SDS011;50159;49.426;11.182;2023-04-03T05:24:43;3.33;;;3.17;;
11537;SDS011;50159;49.426;11.182;2023-04-03T05:27:10;3.50;;;3.30;;
11537;SDS011;50159;49.426;11.182;2023-04-03T05:29:37;3.73;;;3.43;;
11537;SDS011;50159;49.426;11.182;2023-04-03T05:32:04;3.37;;;3.17;;
11537;SDS011;50159;49.426;11.182;2023-04-03T05:34:30;4.17;;;3.20;;
11537;SDS011;50159;49.426;11.182;2023-04-03T05:36:57;3.13;;;3.03;;
11537;SDS011;50159;49.426;11.182;2023-04-03T05:39:24;3.33;;;3.13;;
11537;SDS011;50159;49.426;11.182;2023-04-03T05:41:51;3.90;;;3.37;;
11537;SDS011;50159;49.426;11.182;2023-04-03T05:44:18;3.63;;;3.40;;
11537;SDS011;50159;49.426;11.182;2023-04-03T05:46:45;3.70;;;3.40;;
11537;SDS011;50159;49.426;11.182;2023-04-03T05:49:12;3.83;;;3.63;;
11537;SDS011;50159;49.426;11.182;2023-04-03T05:51:38;4.10;;;3.07;;
11537;SDS011;50159;49.426;11.182;2023-04-03T05:54:10;3.13;;;3.00;;
11537;SDS011;50159;49.426;11.182;2023-04-03T05:56:44;3.03;;;2.90;;
11537;SDS011;50159;49.426;11.182;2023-04-03T05:59:11;3.07;;;2.90;;
11537;SDS011;50159;49.426;11.182;2023-04-03T06:01:38;3.10;;;3.00;;
11537;SDS011;50159;49.426;11.182;2023-04-03T06:04:04;3.30;;;3.10;;
11537;SDS011;50159;49.426;11.182;2023-04-03T06:06:51;3.10;;;2.90;;
11537;SDS011;50159;49.426;11.182;2023-04-03T06:09:27;3.30;;;3.10;;
11537;SDS011;50159;49.426;11.182;2023-04-03T06:11:57;3.00;;;2.90;;
11537;SDS011;50159;49.426;11.182;2023-04-03T06:14:25;3.17;;;3.03;;
11537;SDS011;50159;49.426;11.182;2023-04-03T06:16:52;4.30;;;3.30;;
11537;SDS011;50159;49.426;11.182;2023-04-03T06:19:20;3.87;;;3.30;;
11537;SDS011;50159;49.426;11.182;2023-04-03T06:21:47;3.90;;;3.57;;
11537;SDS011;50159;49.426;11.182;2023-04-03T06:24:15;3.30;;;3.20;;
11537;SDS011;50159;49.426;11.182;2023-04-03T06:26:43;3.70;;;3.40;;
11537;SDS011;50159;49.426;11.182;2023-04-03T06:29:10;3.43;;;3.23;;
11537;SDS011;50159;49.426;11.182;2023-04-03T06:31:37;3.33;;;3.13;;
11537;SDS011;50159;49.426;11.182;2023-04-03T06:34:05;5.53;;;3.30;;
11537;SDS011;50159;49.426;11.182;2023-04-03T06:36:35;3.73;;;3.43;;
11537;SDS011;50159;49.426;11.182;2023-04-03T06:39:02;3.13;;;2.97;;
11537;SDS011;50159;49.426;11.182;2023-04-03T06:41:29;3.20;;;3.00;;
11537;SDS011;50159;49.426;11.182;2023-04-03T06:43:56;3.40;;;3.20;;
11537;SDS011;50159;49.426;11.182;2023-04-03T06:46:25;3.83;;;3.53;;
11537;SDS011;50159;49.426;11.182;2023-04-03T06:48:53;4.07;;;3.57;;
11537;SDS011;50159;49.426;11.182;2023-04-03T06:53:53;5.83;;;3.50;;
11537;SDS011;50159;49.426;11.182;2023-04-03T06:56:23;3.30;;;3.10;;
11537;SDS011;50159;49.426;11.182;2023-04-03T06:58:51;3.50;;;3.10;;
11537;SDS011;50159;49.426;11.182;2023-04-03T07:01:20;4.23;;;3.60;;
11537;SDS011;50159;49.426;11.182;2023-04-03T07:03:47;5.77;;;3.50;;
11537;SDS011;50159;49.426;11.182;2023-04-03T07:06:16;5.73;;;3.17;;
11537;SDS011;50159;49.426;11.182;2023-04-03T07:08:44;3.43;;;3.23;;
11537;SDS011;50159;49.426;11.182;2023-04-03T07:11:14;5.23;;;3.60;;
11537;SDS011;50159;49.426;11.182;2023-04-03T07:13:42;5.33;;;3.37;;
11537;SDS011;50159;49.426;11.182;2023-04-03T07:16:09;3.97;;;3.13;;
11537;SDS011;50159;49.426;11.182;2023-04-03T07:18:37;3.10;;;3.00;;
11537;SDS011;50159;49.426;11.182;2023-04-03T07:21:03;4.73;;;2.83;;
11537;SDS011;50159;49.426;11.182;2023-04-03T07:23:30;8.10;;;3.33;;
11537;SDS011;50159;49.426;11.182;2023-04-03T07:25:57;5.63;;;3.03;;
11537;SDS011;50159;49.426;11.182;2023-04-03T07:28:25;3.67;;;3.37;;
11537;SDS011;50159;49.426;11.182;2023-04-03T07:30:59;5.03;;;3.47;;
11537;SDS011;50159;49.426;11.182;2023-04-03T07:33:32;4.13;;;3.47;;
11537;SDS011;50159;49.426;11.182;2023-04-03T07:36:01;5.00;;;3.83;;
11537;SDS011;50159;49.426;11.182;2023-04-03T07:38:28;5.20;;;2.97;;
11537;SDS011;50159;49.426;11.182;2023-04-03T07:40:55;3.60;;;3.30;;
11537;SDS011;50159;49.426;11.182;2023-04-03T07:43:22;2.90;;;2.80;;
11537;SDS011;50159;49.426;11.182;2023-04-03T07:45:50;6.33;;;3.50;;
11537;SDS011;50159;49.426;11.182;2023-04-03T07:48:19;4.00;;;3.70;;
11537;SDS011;50159;49.426;11.182;2023-04-03T07:50:48;3.97;;;3.00;;
11537;SDS011;50159;49.426;11.182;2023-04-03T07:53:15;3.43;;;3.13;;
11537;SDS011;50159;49.426;11.182;2023-04-03T07:55:42;3.03;;;2.70;;
11537;SDS011;50159;49.426;11.182;2023-04-03T07:58:14;6.83;;;3.07;;
11537;SDS011;50159;49.426;11.182;2023-04-03T08:00:43;6.57;;;3.33;;
11537;SDS011;50159;49.426;11.182;2023-04-03T08:03:11;3.67;;;3.03;;
11537;SDS011;50159;49.426;11.182;2023-04-03T08:05:40;2.87;;;2.67;;
11537;SDS011;50159;49.426;11.182;2023-04-03T08:08:13;3.27;;;3.00;;
11537;SDS011;50159;49.426;11.182;2023-04-03T08:10:50;4.90;;;2.90;;
11537;SDS011;50159;49.426;11.182;2023-04-03T08:13:19;3.40;;;2.93;;
11537;SDS011;50159;49.426;11.182;2023-04-03T08:15:47;4.40;;;2.70;;
11537;SDS011;50159;49.426;11.182;2023-04-03T08:18:14;3.17;;;2.87;;
11537;SDS011;50159;49.426;11.182;2023-04-03T08:20:42;4.63;;;3.00;;
11537;SDS011;50159;49.426;11.182;2023-04-03T08:23:09;3.07;;;2.80;;
11537;SDS011;50159;49.426;11.182;2023-04-03T08:25:38;3.10;;;2.90;;
11537;SDS011;50159;49.426;11.182;2023-04-03T08:28:06;3.53;;;3.10;;
11537;SDS011;50159;49.426;11.182;2023-04-03T08:30:34;5.27;;;2.97;;
11537;SDS011;50159;49.426;11.182;2023-04-03T08:33:02;2.90;;;2.77;;
11537;SDS011;50159;49.426;11.182;2023-04-03T08:35:30;5.33;;;3.07;;
11537;SDS011;50159;49.426;11.182;2023-04-03T08:37:56;2.40;;;2.30;;
11537;SDS011;50159;49.426;11.182;2023-04-03T08:40:24;3.30;;;2.80;;
11537;SDS011;50159;49.426;11.182;2023-04-03T08:42:54;3.10;;;2.90;;
11537;SDS011;50159;49.426;11.182;2023-04-03T08:45:45;4.37;;;2.53;;
11537;SDS011;50159;49.426;11.182;2023-04-03T08:48:21;2.77;;;2.57;;
11537;SDS011;50159;49.426;11.182;2023-04-03T08:51:00;2.73;;;2.47;;
11537;SDS011;50159;49.426;11.182;2023-04-03T08:53:39;2.73;;;2.53;;
11537;SDS011;50159;49.426;11.182;2023-04-03T08:56:11;3.27;;;2.40;;
11537;SDS011;50159;49.426;11.182;2023-04-03T08:58:57;2.37;;;2.17;;
11537;SDS011;50159;49.426;11.182;2023-04-03T09:01:32;2.43;;;2.30;;
11537;SDS011;50159;49.426;11.182;2023-04-03T09:04:08;2.57;;;2.47;;
11537;SDS011;50159;49.426;11.182;2023-04-03T09:06:45;2.27;;;2.10;;
11537;SDS011;50159;49.426;11.182;2023-04-03T09:17:41;2.30;;;2.20;;
11537;SDS011;50159;49.426;11.182;2023-04-03T09:23:33;2.60;;;2.17;;
11537;SDS011;50159;49.426;11.182;2023-04-03T09:26:21;2.40;;;2.20;;
11537;SDS011;50159;49.426;11.182;2023-04-03T09:28:57;2.73;;;2.53;;
11537;SDS011;50159;49.426;11.182;2023-04-03T09:31:34;3.57;;;2.57;;
11537;SDS011;50159;49.426;11.182;2023-04-03T09:34:20;4.70;;;2.27;;
11537;SDS011;50159;49.426;11.182;2023-04-03T09:36:55;4.63;;;2.80;;
11537;SDS011;50159;49.426;11.182;2023-04-03T09:39:26;2.57;;;2.43;;
11537;SDS011;50159;49.426;11.182;2023-04-03T09:44:32;2.33;;;2.23;;
11537;SDS011;50159;49.426;11.182;2023-04-03T09:50:15;4.20;;;2.90;;
11537;SDS011;50159;49.426;11.182;2023-04-03T09:52:48;3.30;;;2.07;;
11537;SDS011;50159;49.426;11.182;2023-04-03T09:55:19;2.47;;;2.27;;
11537;SDS011;50159;49.426;11.182;2023-04-03T09:57:53;5.40;;;2.53;;
11537;SDS011;50159;49.426;11.182;2023-04-03T10:00:33;4.53;;;2.07;;
11537;SDS011;50159;49.426;11.182;2023-04-03T10:03:05;3.30;;;2.57;;
11537;SDS011;50159;49.426;11.182;2023-04-03T10:05:52;2.70;;;2.50;;
11537;SDS011;50159;49.426;11.182;2023-04-03T10:08:27;2.67;;;2.47;;
11537;SDS011;50159;49.426;11.182;2023-04-03T10:11:13;2.67;;;2.47;;
11537;SDS011;50159;49.426;11.182;2023-04-03T10:13:57;2.50;;;2.30;;
11537;SDS011;50159;49.426;11.182;2023-04-03T10:22:00;2.27;;;2.17;;
11537;SDS011;50159;49.426;11.182;2023-04-03T10:34:12;4.73;;;4.43;;
11537;SDS011;50159;49.426;11.182;2023-04-03T10:36:57;4.00;;;2.43;;
11537;SDS011;50159;49.426;11.182;2023-04-03T10:39:59;3.00;;;2.40;;
11537;SDS011;50159;49.426;11.182;2023-04-03T10:45:36;5.33;;;2.40;;
11537;SDS011;50159;49.426;11.182;2023-04-03T10:51:01;2.47;;;2.30;;
11537;SDS011;50159;49.426;11.182;2023-04-03T10:53:55;4.33;;;2.37;;
11537;SDS011;50159;49.426;11.182;2023-04-03T11:01:46;3.13;;;2.33;;
11537;SDS011;50159;49.426;11.182;2023-04-03T11:04:20;2.33;;;2.23;;
11537;SDS011;50159;49.426;11.182;2023-04-03T11:06:57;2.77;;;2.57;;
11537;SDS011;50159;49.426;11.182;2023-04-03T11:09:42;2.20;;;2.10;;
11537;SDS011;50159;49.426;11.182;2023-04-03T11:12:15;2.57;;;2.47;;
11537;SDS011;50159;49.426;11.182;2023-04-03T11:15:11;2.37;;;2.17;;
11537;SDS011;50159;49.426;11.182;2023-04-03T11:17:46;2.60;;;1.80;;
11537;SDS011;50159;49.426;11.182;2023-04-03T11:23:00;2.30;;;2.20;;
11537;SDS011;50159;49.426;11.182;2023-04-03T11:26:06;1.90;;;1.90;;
11537;SDS011;50159;49.426;11.182;2023-04-03T11:28:43;2.10;;;2.00;;
11537;SDS011;50159;49.426;11.182;2023-04-03T11:31:32;2.30;;;2.17;;
11537;SDS011;50159;49.426;11.182;2023-04-03T11:34:38;2.27;;;2.17;;
11537;SDS011;50159;49.426;11.182;2023-04-03T11:37:36;1.87;;;1.80;;
11537;SDS011;50159;49.426;11.182;2023-04-03T11:42:47;2.33;;;2.13;;
11537;SDS011;50159;49.426;11.182;2023-04-03T11:47:58;2.07;;;1.90;;
11537;SDS011;50159;49.426;11.182;2023-04-03T11:50:50;2.13;;;2.03;;
11537;SDS011;50159;49.426;11.182;2023-04-03T11:53:26;1.90;;;1.80;;
11537;SDS011;50159;49.426;11.182;2023-04-03T11:58:29;2.10;;;2.10;;
11537;SDS011;50159;49.426;11.182;2023-04-03T12:13:40;3.27;;;1.87;;
11537;SDS011;50159;49.426;11.182;2023-04-03T12:38:21;1.87;;;1.80;;
11537;SDS011;50159;49.426;11.182;2023-04-03T12:47:25;1.53;;;1.53;;
11537;SDS011;50159;49.426;11.182;2023-04-03T12:50:02;2.20;;;2.03;;
11537;SDS011;50159;49.426;11.182;2023-04-03T12:52:42;4.10;;;1.60;;
11537;SDS011;50159;49.426;11.182;2023-04-03T12:55:18;2.00;;;1.90;;
11537;SDS011;50159;49.426;11.182;2023-04-03T12:57:47;2.00;;;1.70;;
11537;SDS011;50159;49.426;11.182;2023-04-03T13:00:22;1.53;;;1.53;;
11537;SDS011;50159;49.426;11.182;2023-04-03T13:02:59;2.13;;;1.97;;
11537;SDS011;50159;49.426;11.182;2023-04-03T13:05:29;1.87;;;1.77;;
11537;SDS011;50159;49.426;11.182;2023-04-03T13:08:05;1.73;;;1.63;;
11537;SDS011;50159;49.426;11.182;2023-04-03T13:13:38;2.33;;;1.40;;
11537;SDS011;50159;49.426;11.182;2023-04-03T13:16:09;2.60;;;1.67;;
11537;SDS011;50159;49.426;11.182;2023-04-03T13:18:39;2.27;;;1.90;;
11537;SDS011;50159;49.426;11.182;2023-04-03T13:21:20;1.57;;;1.50;;
11537;SDS011;50159;49.426;11.182;2023-04-03T13:23:55;2.77;;;1.80;;
11537;SDS011;50159;49.426;11.182;2023-04-03T13:26:40;1.60;;;1.50;;
11537;SDS011;50159;49.426;11.182;2023-04-03T13:29:19;2.07;;;1.80;;
11537;SDS011;50159;49.426;11.182;2023-04-03T13:31:57;4.07;;;1.80;;
11537;SDS011;50159;49.426;11.182;2023-04-03T13:34:38;2.97;;;1.80;;
11537;SDS011;50159;49.426;11.182;2023-04-03T13:37:20;1.73;;;1.63;;
11537;SDS011;50159;49.426;11.182;2023-04-03T13:39:55;1.80;;;1.80;;
11537;SDS011;50159;49.426;11.182;2023-04-03T13:42:28;2.10;;;2.00;;
11537;SDS011;50159;49.426;11.182;2023-04-03T13:45:08;1.83;;;1.70;;
11537;SDS011;50159;49.426;11.182;2023-04-03T13:47:52;1.60;;;1.60;;
11537;SDS011;50159;49.426;11.182;2023-04-03T13:51:00;1.77;;;1.67;;
11537;SDS011;50159;49.426;11.182;2023-04-03T13:53:49;1.70;;;1.70;;
11537;SDS011;50159;49.426;11.182;2023-04-03T13:56:33;1.83;;;1.73;;
11537;SDS011;50159;49.426;11.182;2023-04-03T14:06:53;1.40;;;1.40;;
11537;SDS011;50159;49.426;11.182;2023-04-03T14:09:22;2.23;;;2.03;;
11537;SDS011;50159;49.426;11.182;2023-04-03T14:11:55;1.50;;;1.50;;
11537;SDS011;50159;49.426;11.182;2023-04-03T14:14:31;1.80;;;1.70;;
11537;SDS011;50159;49.426;11.182;2023-04-03T14:17:03;1.97;;;1.87;;
11537;SDS011;50159;49.426;11.182;2023-04-03T14:19:50;1.50;;;1.50;;
11537;SDS011;50159;49.426;11.182;2023-04-03T14:22:23;2.40;;;1.87;;
11537;SDS011;50159;49.426;11.182;2023-04-03T14:24:54;2.07;;;1.83;;
11537;SDS011;50159;49.426;11.182;2023-04-03T14:27:24;2.00;;;1.40;;
11537;SDS011;50159;49.426;11.182;2023-04-03T14:30:06;2.83;;;1.70;;
11537;SDS011;50159;49.426;11.182;2023-04-03T14:32:43;1.63;;;1.57;;
11537;SDS011;50159;49.426;11.182;2023-04-03T14:35:11;1.40;;;1.40;;
11537;SDS011;50159;49.426;11.182;2023-04-03T14:37:37;1.30;;;1.30;;
11537;SDS011;50159;49.426;11.182;2023-04-03T14:40:05;1.73;;;1.60;;
11537;SDS011;50159;49.426;11.182;2023-04-03T14:42:35;1.70;;;1.60;;
11537;SDS011;50159;49.426;11.182;2023-04-03T14:45:05;2.47;;;1.50;;
11537;SDS011;50159;49.426;11.182;2023-04-03T14:47:39;2.10;;;2.00;;
11537;SDS011;50159;49.426;11.182;2023-04-03T14:50:19;1.60;;;1.50;;
11537;SDS011;50159;49.426;11.182;2023-04-03T14:52:50;1.60;;;1.50;;
11537;SDS011;50159;49.426;11.182;2023-04-03T14:55:21;4.00;;;1.83;;
11537;SDS011;50159;49.426;11.182;2023-04-03T14:57:51;2.70;;;2.07;;
11537;SDS011;50159;49.426;11.182;2023-04-03T15:00:20;1.87;;;1.60;;
11537;SDS011;50159;49.426;11.182;2023-04-03T15:02:48;1.33;;;1.33;;
11537;SDS011;50159;49.426;11.182;2023-04-03T15:05:15;1.67;;;1.63;;
11537;SDS011;50159;49.426;11.182;2023-04-03T15:07:45;2.00;;;1.40;;
11537;SDS011;50159;49.426;11.182;2023-04-03T15:10:19;1.40;;;1.40;;
11537;SDS011;50159;49.426;11.182;2023-04-03T15:12:51;1.47;;;1.47;;
11537;SDS011;50159;49.426;11.182;2023-04-03T15:15:19;1.90;;;1.63;;
11537;SDS011;50159;49.426;11.182;2023-04-03T15:17:51;1.60;;;1.50;;
11537;SDS011;50159;49.426;11.182;2023-04-03T15:20:22;1.73;;;1.63;;
11537;SDS011;50159;49.426;11.182;2023-04-03T15:22:53;1.70;;;1.60;;
11537;SDS011;50159;49.426;11.182;2023-04-03T15:25:22;1.53;;;1.43;;
11537;SDS011;50159;49.426;11.182;2023-04-03T15:27:50;1.67;;;1.67;;
11537;SDS011;50159;49.426;11.182;2023-04-03T15:30:18;1.37;;;1.33;;
11537;SDS011;50159;49.426;11.182;2023-04-03T15:32:46;1.77;;;1.67;;
11537;SDS011;50159;49.426;11.182;2023-04-03T15:35:14;1.80;;;1.70;;
11537;SDS011;50159;49.426;11.182;2023-04-03T15:37:41;3.00;;;1.40;;
11537;SDS011;50159;49.426;11.182;2023-04-03T15:40:09;1.80;;;1.50;;
11537;SDS011;50159;49.426;11.182;2023-04-03T15:42:37;1.70;;;1.60;;
11537;SDS011;50159;49.426;11.182;2023-04-03T15:45:05;1.60;;;1.50;;
11537;SDS011;50159;49.426;11.182;2023-04-03T15:47:33;1.57;;;1.50;;
11537;SDS011;50159;49.426;11.182;2023-04-03T15:50:00;1.80;;;1.70;;
11537;SDS011;50159;49.426;11.182;2023-04-03T15:52:27;1.60;;;1.50;;
11537;SDS011;50159;49.426;11.182;2023-04-03T15:54:54;1.73;;;1.73;;
11537;SDS011;50159;49.426;11.182;2023-04-03T15:57:21;1.77;;;1.67;;
11537;SDS011;50159;49.426;11.182;2023-04-03T15:59:52;1.87;;;1.70;;
11537;SDS011;50159;49.426;11.182;2023-04-03T16:02:19;1.50;;;1.47;;
11537;SDS011;50159;49.426;11.182;2023-04-03T16:04:47;1.70;;;1.60;;
11537;SDS011;50159;49.426;11.182;2023-04-03T16:07:14;2.00;;;1.90;;
11537;SDS011;50159;49.426;11.182;2023-04-03T16:09:41;1.90;;;1.80;;
11537;SDS011;50159;49.426;11.182;2023-04-03T16:12:08;2.60;;;1.80;;
11537;SDS011;50159;49.426;11.182;2023-04-03T16:14:35;1.83;;;1.73;;
11537;SDS011;50159;49.426;11.182;2023-04-03T16:17:01;1.83;;;1.77;;
11537;SDS011;50159;49.426;11.182;2023-04-03T16:19:29;2.43;;;1.90;;
11537;SDS011;50159;49.426;11.182;2023-04-03T16:21:56;2.03;;;1.93;;
11537;SDS011;50159;49.426;11.182;2023-04-03T16:24:23;2.13;;;2.00;;
11537;SDS011;50159;49.426;11.182;2023-04-03T16:26:50;2.10;;;1.93;;
11537;SDS011;50159;49.426;11.182;2023-04-03T16:29:17;2.00;;;1.90;;
11537;SDS011;50159;49.426;11.182;2023-04-03T16:31:43;1.60;;;1.60;;
11537;SDS011;50159;49.426;11.182;2023-04-03T16:34:11;2.07;;;1.97;;
11537;SDS011;50159;49.426;11.182;2023-04-03T16:36:38;1.93;;;1.80;;
11537;SDS011;50159;49.426;11.182;2023-04-03T16:39:05;1.93;;;1.73;;
11537;SDS011;50159;49.426;11.182;2023-04-03T16:41:32;2.20;;;2.00;;
11537;SDS011;50159;49.426;11.182;2023-04-03T16:43:58;1.97;;;1.87;;
11537;SDS011;50159;49.426;11.182;2023-04-03T16:46:25;2.00;;;1.90;;
11537;SDS011;50159;49.426;11.182;2023-04-03T16:48:52;3.13;;;2.20;;